.
WxDataArchive / Data Records for 2013-02-25
2013-02-24 February 2013 2013-02-26

Data Records for Monday, 25 February 2013

Time	Temp	Chill	HIndex	Humid	Dewpt	 Wind 	HiWind	WindDir	Rain 	Barom 
-----	----	-----	------	-----	-----	------	------	-------	-----	----- 
00:00	21.4	21.4	21.4	86	17.9	0	0	---	0.00	30.180 
00:05	21.3	21.3	21.3	86	17.8	0	0	---	0.00	30.180 
00:10	21.3	21.3	21.3	86	17.8	0	0	---	0.00	30.180 
00:15	21.1	21.1	21.1	87	17.8	0	0	---	0.00	30.177 
00:20	21.0	21.0	21.0	87	17.8	0	0	---	0.00	30.177 
00:25	21.0	21.0	21.0	87	17.8	0	0	---	0.00	30.177 
00:30	21.0	21.0	21.0	87	17.8	0	0	---	0.00	30.177 
00:35	21.0	21.0	21.0	87	17.8	0	0	---	0.00	30.177 
00:40	21.0	21.0	21.0	87	17.8	0	0	---	0.00	30.177 
00:45	20.8	20.8	20.8	87	17.6	0	0	---	0.00	30.178 
00:50	20.6	20.6	20.6	87	17.4	0	0	---	0.00	30.178 
00:55	20.8	20.8	20.8	88	17.8	0	0	---	0.00	30.178 
01:00	20.6	20.6	20.6	88	17.6	0	0	---	0.00	30.185 
01:05	20.6	20.6	20.6	88	17.6	0	0	---	0.00	30.185 
01:10	20.5	20.5	20.5	88	17.5	0	0	---	0.00	30.185 
01:15	20.3	20.3	20.3	88	17.3	0	0	---	0.00	30.175 
01:20	20.2	20.2	20.2	88	17.2	0	0	---	0.00	30.175 
01:25	20.2	20.2	20.2	88	17.2	0	0	---	0.00	30.175 
01:30	20.2	20.2	20.2	88	17.2	0	0	---	0.00	30.176 
01:35	20.2	20.2	20.2	88	17.2	0	0	---	0.00	30.176 
01:40	20.0	20.0	20.0	88	17.0	0	0	---	0.00	30.176 
01:45	20.0	20.0	20.0	88	17.0	0	0	---	0.00	30.178 
01:50	20.0	20.0	20.0	88	17.0	0	0	---	0.00	30.178 
01:55	19.9	19.9	19.9	88	16.9	0	0	---	0.00	30.178 
02:00	19.7	19.7	19.7	88	16.7	0	0	---	0.00	30.181 
02:05	19.7	19.7	19.7	88	16.7	0	0	---	0.00	30.181 
02:10	19.7	19.7	19.7	88	16.7	0	0	---	0.00	30.181 
02:15	19.7	19.7	19.7	88	16.7	0	0	---	0.00	30.175 
02:20	19.5	19.5	19.5	88	16.5	0	0	---	0.00	30.175 
02:25	19.4	19.4	19.4	88	16.4	0	0	---	0.00	30.175 
02:30	19.2	19.2	19.2	88	16.2	0	0	---	0.00	30.178 
02:35	19.2	19.2	19.2	88	16.2	0	0	---	0.00	30.178 
02:40	19.1	19.1	19.1	88	16.1	0	0	---	0.00	30.178 
02:45	19.1	19.1	19.1	88	16.1	0	0	---	0.00	30.175 
02:50	19.1	19.1	19.1	88	16.1	0	0	---	0.00	30.175 
02:55	19.1	19.1	19.1	88	16.1	0	0	---	0.00	30.175 
03:00	19.1	19.1	19.1	88	16.1	0	0	---	0.00	30.174 
03:05	18.9	18.9	18.9	88	15.9	0	0	---	0.00	30.174 
03:10	18.9	18.9	18.9	88	15.9	0	0	---	0.00	30.174 
03:15	18.9	18.9	18.9	88	15.9	0	0	---	0.00	30.172 
03:20	18.9	18.9	18.9	88	15.9	0	0	---	0.00	30.172 
03:25	18.8	18.8	18.8	89	16.1	0	0	---	0.00	30.172 
03:30	18.8	18.8	18.8	88	15.8	0	0	---	0.00	30.169 
03:35	18.6	18.6	18.6	88	15.6	0	0	---	0.00	30.169 
03:40	18.6	18.6	18.6	89	15.9	0	0	---	0.00	30.169 
03:45	18.6	18.6	18.6	89	15.9	0	0	---	0.00	30.171 
03:50	18.6	18.6	18.6	89	15.9	0	0	---	0.00	30.171 
03:55	18.6	18.6	18.6	89	15.9	0	0	---	0.00	30.171 
04:00	18.4	18.4	18.4	89	15.7	0	0	---	0.00	30.167 
04:05	18.4	18.4	18.4	89	15.7	0	0	---	0.00	30.167 
04:10	18.4	18.4	18.4	89	15.7	0	0	---	0.00	30.167 
04:15	18.4	18.4	18.4	89	15.7	0	0	---	0.00	30.164 
04:20	18.3	18.3	18.3	89	15.6	0	0	---	0.00	30.164 
04:25	18.3	18.3	18.3	89	15.6	0	0	---	0.00	30.164 
04:30	18.3	18.3	18.3	89	15.6	0	0	---	0.00	30.162 
04:35	18.1	18.1	18.1	89	15.4	0	0	---	0.00	30.162 
04:40	18.1	18.1	18.1	89	15.4	0	0	---	0.00	30.162 
04:45	18.1	18.1	18.1	89	15.4	0	0	---	0.00	30.160 
04:50	18.1	18.1	18.1	89	15.4	0	0	---	0.00	30.160 
04:55	18.1	18.1	18.1	89	15.4	0	0	---	0.00	30.160 
05:00	18.0	18.0	18.0	89	15.3	0	0	---	0.00	30.169 
05:05	18.0	18.0	18.0	89	15.3	0	0	---	0.00	30.169 
05:10	18.0	18.0	18.0	89	15.3	0	0	---	0.00	30.169 
05:15	18.0	18.0	18.0	89	15.3	0	0	---	0.00	30.184 
05:20	18.0	18.0	18.0	89	15.3	0	0	---	0.00	30.184 
05:25	18.0	18.0	18.0	89	15.3	0	0	---	0.00	30.184 
05:30	18.0	18.0	18.0	89	15.3	0	0	---	0.00	30.195 
05:35	18.0	18.0	18.0	89	15.3	0	0	---	0.00	30.195 
05:40	18.0	18.0	18.0	89	15.3	0	0	---	0.00	30.195 
05:45	18.0	18.0	18.0	89	15.3	0	0	---	0.00	30.199 
05:50	18.0	18.0	18.0	89	15.3	0	0	---	0.00	30.199 
05:55	17.8	17.8	17.8	89	15.1	0	0	---	0.00	30.199 
06:00	17.8	17.8	17.8	89	15.1	0	0	---	0.00	30.201 
06:05	17.8	17.8	17.8	89	15.1	0	0	---	0.00	30.201 
06:10	17.8	17.8	17.8	89	15.1	0	0	---	0.00	30.201 
06:15	17.8	17.8	17.8	89	15.1	0	0	---	0.00	30.211 
06:20	17.8	17.8	17.8	89	15.1	0	0	---	0.00	30.211 
06:25	17.8	17.8	17.8	89	15.1	0	0	---	0.00	30.211 
06:30	17.8	17.8	17.8	89	15.1	0	0	---	0.00	30.220 
06:35	17.7	17.7	17.7	89	15.0	0	0	---	0.00	30.220 
06:40	17.5	17.5	17.5	89	14.8	0	0	---	0.00	30.220 
06:45	17.3	17.3	17.3	89	14.6	0	0	---	0.00	30.224 
06:50	17.3	17.3	17.3	89	14.6	0	0	---	0.00	30.224 
06:55	17.3	17.3	17.3	89	14.6	0	0	---	0.00	30.224 
07:00	17.2	17.2	17.2	89	14.5	0	0	---	0.00	30.226 
07:05	17.2	17.2	17.2	89	14.5	0	0	---	0.00	30.226 
07:10	17.0	17.0	17.0	89	14.3	0	0	---	0.00	30.226 
07:15	17.0	17.0	17.0	89	14.3	0	0	---	0.00	30.232 
07:20	17.2	17.2	17.2	89	14.5	0	0	---	0.00	30.232 
07:25	17.2	17.2	17.2	89	14.5	0	0	---	0.00	30.232 
07:30	17.2	17.2	17.2	89	14.5	0	0	---	0.00	30.228 
07:35	17.3	17.3	17.3	90	14.9	0	0	---	0.00	30.228 
07:40	17.5	17.5	17.5	89	14.8	0	0	---	0.00	30.228 
07:45	17.7	17.7	17.7	89	15.0	0	0	---	0.00	30.232 
07:50	17.8	17.8	17.8	89	15.1	0	0	---	0.00	30.232 
07:55	18.0	18.0	18.0	89	15.3	0	0	---	0.00	30.232 
08:00	18.3	18.3	18.3	90	15.9	0	0	---	0.00	30.236 
08:05	18.6	18.6	18.6	90	16.2	0	0	---	0.00	30.236 
08:10	19.2	19.2	19.2	90	16.8	0	0	---	0.00	30.236 
08:15	19.7	19.7	19.7	90	17.3	0	0	---	0.00	30.238 
08:20	20.3	20.3	20.3	91	18.1	0	0	---	0.00	30.238 
08:25	21.0	21.0	21.0	91	18.8	0	0	---	0.00	30.238 
08:30	21.6	21.6	21.6	91	19.4	0	0	---	0.00	30.239 
08:35	22.4	22.4	22.4	91	20.2	0	0	---	0.00	30.239 
08:40	23.3	23.3	23.3	92	21.3	0	0	---	0.00	30.239 
08:45	24.7	24.7	24.7	92	22.7	0	1	338	0.00	30.226 
08:50	25.8	25.8	25.8	92	23.8	0	1	338	0.00	30.226 
08:55	26.7	26.7	26.7	92	24.7	0	1	338	0.00	30.226 
09:00	27.5	27.5	27.5	90	25.0	0	2	45	0.00	30.223 
09:05	28.2	28.2	28.2	89	25.4	0	2	45	0.00	30.223 
09:10	28.8	28.8	28.8	86	25.2	1	2	45	0.00	30.223 
09:15	29.4	29.4	29.4	84	25.2	1	3	45	0.00	30.224 
09:20	30.0	30.0	30.0	82	25.2	1	3	45	0.00	30.224 
09:25	30.4	30.4	30.4	80	25.0	2	4	112	0.00	30.224 
09:30	31.0	31.0	31.0	79	25.3	1	5	112	0.00	30.215 
09:35	31.5	31.5	31.5	78	25.4	2	5	90	0.00	30.215 
09:40	31.9	31.9	31.9	77	25.5	1	4	112	0.00	30.215 
09:45	32.4	32.4	32.4	77	26.0	2	4	112	0.00	30.211 
09:50	32.5	32.5	32.5	75	25.5	3	7	90	0.00	30.211 
09:55	32.8	32.8	32.8	75	25.8	2	5	90	0.00	30.211 
10:00	32.9	32.9	32.9	75	25.9	3	5	112	0.00	30.206 
10:05	33.1	33.1	33.1	75	26.1	2	6	90	0.00	30.206 
10:10	33.4	33.4	33.4	75	26.3	2	5	90	0.00	30.206 
10:15	34.0	34.0	34.0	75	26.9	3	6	90	0.00	30.209 
10:20	34.4	34.4	34.4	72	26.3	2	5	90	0.00	30.209 
10:25	35.0	35.0	35.0	70	26.2	2	5	112	0.00	30.209 
10:30	35.2	35.2	35.2	69	26.1	3	7	112	0.00	30.217 
10:35	35.3	35.3	35.3	68	25.8	2	7	112	0.00	30.217 
10:40	35.5	35.5	35.5	69	26.4	3	7	112	0.00	30.217 
10:45	35.9	35.9	35.9	69	26.7	3	5	112	0.00	30.218 
10:50	35.8	35.8	35.8	68	26.3	3	9	90	0.00	30.218 
10:55	36.0	36.0	36.0	66	25.8	3	6	112	0.00	30.218 
11:00	36.3	33.0	36.3	64	25.3	4	9	90	0.00	30.206 
11:05	36.3	36.3	36.3	67	26.4	3	6	90	0.00	30.206 
11:10	36.6	36.6	36.6	67	26.7	3	10	90	0.00	30.206 
11:15	36.9	36.9	36.9	62	25.1	2	9	90	0.00	30.214 
11:20	37.3	37.3	37.3	62	25.5	3	9	90	0.00	30.214 
11:25	37.2	37.2	37.2	64	26.2	3	7	112	0.00	30.214 
11:30	37.3	37.3	37.3	60	24.7	3	9	112	0.00	30.209 
11:35	37.3	37.3	37.3	59	24.3	3	9	112	0.00	30.209 
11:40	37.3	34.2	37.3	59	24.3	4	10	112	0.00	30.209 
11:45	37.2	33.2	37.2	60	24.6	5	9	90	0.00	30.203 
11:50	37.3	37.3	37.3	58	23.9	2	4	90	0.00	30.203 
11:55	37.6	34.5	37.6	57	23.8	4	10	90	0.00	30.203 
12:00	37.9	37.9	37.9	58	24.5	3	7	90	0.00	30.201 
12:05	37.9	34.9	37.9	58	24.5	4	11	112	0.00	30.201 
12:10	37.5	34.4	37.5	58	24.1	4	8	112	0.00	30.201 
12:15	37.6	37.6	37.6	59	24.6	3	7	90	0.00	30.189 
12:20	38.0	38.0	38.0	58	24.6	3	10	90	0.00	30.189 
12:25	37.9	34.9	37.9	57	24.0	4	9	112	0.00	30.189 
12:30	38.0	38.0	38.0	58	24.6	3	6	112	0.00	30.186 
12:35	38.2	38.2	38.2	59	25.2	3	7	90	0.00	30.186 
12:40	37.9	37.9	37.9	58	24.5	2	7	112	0.00	30.186 
12:45	37.9	34.9	37.9	56	23.6	4	9	90	0.00	30.174 
12:50	37.9	37.9	37.9	58	24.5	3	7	112	0.00	30.174 
12:55	37.9	34.0	37.9	58	24.5	5	10	112	0.00	30.174 
13:00	37.9	34.9	37.9	58	24.5	4	10	112	0.00	30.158 
13:05	38.2	35.2	38.2	59	25.2	4	9	112	0.00	30.158 
13:10	38.5	35.6	38.5	59	25.4	4	9	90	0.00	30.158 
13:15	38.6	38.6	38.6	59	25.5	3	9	112	0.00	30.155 
13:20	38.8	38.8	38.8	59	25.7	2	6	90	0.00	30.155 
13:25	38.6	38.6	38.6	58	25.1	3	8	112	0.00	30.155 
13:30	38.8	35.9	38.8	59	25.7	4	12	112	0.00	30.160 
13:35	38.8	35.9	38.8	58	25.3	4	11	112	0.00	30.160 
13:40	38.9	38.9	38.9	59	25.8	2	7	90	0.00	30.160 
13:45	39.1	36.3	39.1	58	25.6	4	9	90	0.00	30.155 
13:50	38.9	38.9	38.9	58	25.4	2	7	112	0.00	30.155 
13:55	39.1	39.1	39.1	59	26.0	2	5	112	0.00	30.155 
14:00	39.3	36.5	39.3	57	25.4	4	9	90	0.00	30.141 
14:05	39.3	39.3	39.3	58	25.8	3	11	112	0.00	30.141 
14:10	39.3	39.3	39.3	57	25.4	2	6	112	0.00	30.141 
14:15	39.3	36.5	39.3	59	26.2	4	8	112	0.00	30.137 
14:20	39.6	36.9	39.6	59	26.5	4	9	90	0.00	30.137 
14:25	39.5	35.9	39.5	57	25.5	5	9	90	0.00	30.137 
14:30	39.5	39.5	39.5	58	26.0	3	9	90	0.00	30.131 
14:35	39.8	39.8	39.8	56	25.4	3	6	90	0.00	30.131 
14:40	39.6	39.6	39.6	56	25.2	2	7	90	0.00	30.131 
14:45	39.6	39.6	39.6	58	26.1	3	6	90	0.00	30.139 
14:50	39.8	39.8	39.8	57	25.8	2	6	90	0.00	30.139 
14:55	40.1	40.1	40.1	58	26.5	2	9	68	0.00	30.139 
15:00	39.9	39.9	39.9	57	25.9	3	9	90	0.00	30.139 
15:05	40.1	40.1	40.1	55	25.2	3	7	90	0.00	30.139 
15:10	39.8	39.8	39.8	56	25.4	3	9	90	0.00	30.139 
15:15	39.8	39.8	39.8	57	25.8	3	7	90	0.00	30.135 
15:20	39.8	37.1	39.8	57	25.8	4	6	112	0.00	30.135 
15:25	39.8	39.8	39.8	57	25.8	2	6	112	0.00	30.135 
15:30	40.1	40.1	40.1	57	26.1	3	7	90	0.00	30.130 
15:35	40.1	40.1	40.1	56	25.7	3	7	90	0.00	30.130 
15:40	40.2	40.2	40.2	57	26.2	3	6	112	0.00	30.130 
15:45	40.1	40.1	40.1	57	26.1	1	6	112	0.00	30.124 
15:50	40.1	37.4	40.1	57	26.1	4	9	90	0.00	30.124 
15:55	40.2	40.2	40.2	58	26.6	3	6	112	0.00	30.124 
16:00	40.2	37.5	40.2	58	26.6	4	7	90	0.00	30.123 
16:05	40.2	37.5	40.2	56	25.8	4	10	112	0.00	30.123 
16:10	40.2	37.5	40.2	56	25.8	4	10	90	0.00	30.123 
16:15	40.1	40.1	40.1	57	26.1	2	6	112	0.00	30.118 
16:20	39.9	39.9	39.9	58	26.3	3	12	90	0.00	30.118 
16:25	39.8	37.1	39.8	58	26.2	4	10	90	0.00	30.118 
16:30	39.6	36.9	39.6	57	25.6	4	10	90	0.00	30.112 
16:35	39.6	39.6	39.6	58	26.1	2	7	90	0.00	30.112 
16:40	39.8	39.8	39.8	58	26.2	3	10	112	0.00	30.112 
16:45	39.8	37.1	39.8	57	25.8	4	8	90	0.00	30.114 
16:50	39.8	37.1	39.8	58	26.2	4	7	90	0.00	30.114 
16:55	39.8	39.8	39.8	58	26.2	3	7	90	0.00	30.114 
17:00	39.8	39.8	39.8	59	26.7	3	10	90	0.00	30.106 
17:05	39.8	37.1	39.8	58	26.2	4	10	90	0.00	30.106 
17:10	39.5	36.7	39.5	58	26.0	4	9	112	0.00	30.106 
17:15	39.5	39.5	39.5	59	26.4	2	9	112	0.00	30.106 
17:20	39.5	39.5	39.5	60	26.8	3	9	90	0.00	30.106 
17:25	39.3	39.3	39.3	59	26.2	2	5	90	0.00	30.106 
17:30	39.2	39.2	39.2	59	26.1	3	6	90	0.00	30.109 
17:35	39.2	39.2	39.2	60	26.5	2	7	112	0.00	30.109 
17:40	39.1	39.1	39.1	59	26.0	3	6	90	0.00	30.109 
17:45	39.1	39.1	39.1	60	26.4	3	7	112	0.00	30.108 
17:50	38.8	38.8	38.8	61	26.5	2	4	90	0.00	30.108 
17:55	38.6	38.6	38.6	61	26.3	2	6	90	0.00	30.108 
18:00	38.5	38.5	38.5	62	26.6	2	4	90	0.00	30.107 
18:05	38.3	38.3	38.3	62	26.4	2	6	90	0.00	30.107 
18:10	38.0	38.0	38.0	62	26.2	2	5	90	0.00	30.107 
18:15	37.8	37.8	37.8	63	26.4	1	3	90	0.00	30.109 
18:20	37.5	37.5	37.5	64	26.4	1	5	90	0.00	30.109 
18:25	37.3	37.3	37.3	64	26.3	1	3	90	0.00	30.109 
18:30	37.0	37.0	37.0	65	26.3	0	1	90	0.00	30.110 
18:35	36.8	36.8	36.8	65	26.2	0	1	90	0.00	30.110 
18:40	36.5	36.5	36.5	66	26.2	0	1	90	0.00	30.110 
18:45	36.0	36.0	36.0	67	26.1	0	0	---	0.00	30.111 
18:50	35.8	35.8	35.8	67	25.9	0	2	90	0.00	30.111 
18:55	35.5	35.5	35.5	68	26.0	0	2	90	0.00	30.111 
19:00	35.3	35.3	35.3	69	26.2	0	2	90	0.00	30.111 
19:05	35.2	35.2	35.2	69	26.1	0	2	90	0.00	30.111 
19:10	35.2	35.2	35.2	69	26.1	1	4	90	0.00	30.111 
19:15	35.2	35.2	35.2	69	26.1	1	3	90	0.00	30.096 
19:20	35.0	35.0	35.0	70	26.2	2	5	90	0.00	30.096 
19:25	35.0	35.0	35.0	70	26.2	1	4	90	0.00	30.096 
19:30	34.7	34.7	34.7	71	26.3	0	2	90	0.00	30.097 
19:35	34.6	34.6	34.6	72	26.5	1	4	112	0.00	30.097 
19:40	34.4	34.4	34.4	72	26.3	1	5	112	0.00	30.097 
19:45	34.4	34.4	34.4	73	26.7	1	4	112	0.00	30.098 
19:50	34.4	34.4	34.4	73	26.7	2	6	112	0.00	30.098 
19:55	34.4	34.4	34.4	73	26.7	2	5	112	0.00	30.098 
20:00	34.3	34.3	34.3	73	26.6	2	5	112	0.00	30.081 
20:05	34.3	34.3	34.3	73	26.6	3	6	90	0.00	30.081 
20:10	34.3	34.3	34.3	73	26.6	2	5	112	0.00	30.081 
20:15	34.1	34.1	34.1	73	26.4	2	6	90	0.00	30.061 
20:20	34.1	34.1	34.1	73	26.4	3	10	112	0.00	30.061 
20:25	34.1	34.1	34.1	73	26.4	3	8	90	0.00	30.061 
20:30	34.1	34.1	34.1	73	26.4	3	10	90	0.00	30.046 
20:35	34.0	34.0	34.0	74	26.6	3	11	112	0.00	30.046 
20:40	34.0	30.4	34.0	74	26.6	4	9	112	0.00	30.046 
20:45	33.8	33.8	33.8	75	26.7	3	6	112	0.00	30.041 
20:50	33.5	29.8	33.5	76	26.8	4	7	90	0.00	30.041 
20:55	33.4	29.7	33.4	76	26.7	4	10	90	0.00	30.041 
21:00	33.2	33.2	33.2	76	26.5	3	8	90	0.00	30.041 
21:05	33.1	33.1	33.1	76	26.4	3	6	90	0.00	30.041 
21:10	33.1	33.1	33.1	77	26.7	2	6	90	0.00	30.041 
21:15	32.8	32.8	32.8	77	26.4	2	7	90	0.00	30.038 
21:20	32.7	32.7	32.7	77	26.3	3	11	112	0.00	30.038 
21:25	32.4	32.4	32.4	77	26.0	3	7	90	0.00	30.038 
21:30	32.2	32.2	32.2	77	25.8	3	6	90	0.00	30.041 
21:35	32.2	32.2	32.2	77	25.8	2	6	90	0.00	30.041 
21:40	32.1	32.1	32.1	76	25.4	3	9	112	0.00	30.041 
21:45	32.1	32.1	32.1	75	25.1	3	7	90	0.00	30.061 
21:50	31.9	31.9	31.9	75	24.9	2	4	90	0.00	30.061 
21:55	31.8	31.8	31.8	75	24.8	2	5	90	0.00	30.061 
22:00	31.6	31.6	31.6	75	24.6	2	5	90	0.00	30.090 
22:05	31.5	31.5	31.5	74	24.2	3	6	90	0.00	30.090 
22:10	31.5	31.5	31.5	74	24.2	2	5	90	0.00	30.090 
22:15	31.3	31.3	31.3	74	24.0	2	7	90	0.00	30.070 
22:20	31.2	31.2	31.2	74	23.9	3	5	90	0.00	30.070 
22:25	31.2	31.2	31.2	73	23.6	2	7	90	0.00	30.070 
22:30	31.0	31.0	31.0	73	23.4	2	6	90	0.00	30.075 
22:35	31.0	31.0	31.0	73	23.4	2	6	90	0.00	30.075 
22:40	31.0	31.0	31.0	73	23.4	3	5	112	0.00	30.075 
22:45	31.0	31.0	31.0	73	23.4	3	6	90	0.00	30.073 
22:50	30.9	30.9	30.9	73	23.3	2	8	90	0.00	30.073 
22:55	30.7	30.7	30.7	73	23.1	1	5	112	0.00	30.073 
23:00	30.7	30.7	30.7	73	23.1	2	6	90	0.00	30.069 
23:05	30.6	30.6	30.6	73	23.0	3	7	112	0.00	30.069 
23:10	30.6	30.6	30.6	74	23.3	3	6	112	0.00	30.069 
23:15	30.4	30.4	30.4	74	23.1	3	7	90	0.00	30.053 
23:20	30.3	30.3	30.3	74	23.0	3	9	112	0.00	30.053 
23:25	30.3	30.3	30.3	74	23.0	3	10	90	0.00	30.053 
23:30	30.3	26.1	30.3	74	23.0	4	7	90	0.00	30.050 
23:35	30.3	30.3	30.3	74	23.0	3	8	90	0.00	30.050 
23:40	30.3	30.3	30.3	74	23.0	3	9	90	0.00	30.050 
23:45	30.1	30.1	30.1	74	22.8	3	6	90	0.00	30.038 
23:50	30.1	30.1	30.1	74	22.8	2	10	90	0.00	30.038 
23:55	30.0	30.0	30.0	75	23.1	2	6	90	0.00	30.038 

CoCoRaHS
IN-AL-39
A2 Web Hosting
Creative Commons License
GoDaddy
search engine by freefind advanced

loaded 2018-11-17 14:40:41 • last modified 2010-11-18 10:43:29
Privacy PolicyDisclaimer
• wx.awcolley.com is powered by PmWiki v.2002016 •
• all content (unless otherwise noted) © 2018 A W Colley